Portada
METAR-TAF:

METAR-TAF

Aeroports :

Aeroport de Berlín-Tegel

Berlín, Alemanya

latitud: 52-34N, longitud: 013-19E, altitud: 37 m

Observació

L'informe es va fer fa 23 minuts, a les 07:50 UTC
Vent 6 kt del Nord, variant entre Oest i Nord-Est
Temperatura 21°C
Humitat 60%
Pressió 1021 hPa
Visibilitat 10 km o més
sense núvols per sota de 1500 mi sense presència de cumulonimbus.

METAR: EDDT 180750Z 36006KT 270V040 CAVOK 21/13 Q1021 NOSIG

Hora: 10:13 (08:13 UTC)

Pronòstic

L'informe es va fer fa 3 hores i 13 minuts, a les 05:00 UTC
Pronòstic vàlid del 18 a les 06 UTC al 19 a les 06 UTC
Vent 6 kt del Nord
Visibilitat 10 km o més
Núvols disperses a una alçada de 3500 ft
Evolucionant progressivament
l' 18 a les 09 UTC al 18 a les 11 UTC
Vent 6 kt del Oest

TAF: EDDT 180500Z 1806/1906 35006KT 9999 SCT035 BECMG 1809/1811 28006KT

Observacions i pronòstics meteorològics de més de 4000 aeroports (METAR i TAF).

Les estacions disponibles són els punts grocs i vermells al mapa.

Posi el ratolí al punt desitjat per veure el nom de l'estació.

Feu clic per veure les observacions i els pronòstics meteorològics.

Per canviar el mapa: feu clic els botons verds amb una creu de color negre per apropar; al botó verd amb un guió per allunyar la imatge; o en les fletxes verdes per a mapes adjacents.


METAR-TAF: